sensor_id;sensor_type;location;lat;lon;timestamp;P1;durP1;ratioP1;P2;durP2;ratioP2
12135;SDS011;6131;56.420;15.548;2022-08-03T00:01:57;5.80;;;1.67;;
12135;SDS011;6131;56.420;15.548;2022-08-03T00:04:23;5.60;;;1.50;;
12135;SDS011;6131;56.420;15.548;2022-08-03T00:06:49;6.70;;;1.70;;
12135;SDS011;6131;56.420;15.548;2022-08-03T00:09:15;7.10;;;1.73;;
12135;SDS011;6131;56.420;15.548;2022-08-03T00:11:41;5.90;;;1.30;;
12135;SDS011;6131;56.420;15.548;2022-08-03T00:14:07;4.33;;;1.50;;
12135;SDS011;6131;56.420;15.548;2022-08-03T00:16:33;5.17;;;1.43;;
12135;SDS011;6131;56.420;15.548;2022-08-03T00:18:59;3.97;;;1.53;;
12135;SDS011;6131;56.420;15.548;2022-08-03T00:21:26;4.27;;;1.40;;
12135;SDS011;6131;56.420;15.548;2022-08-03T00:23:52;4.47;;;1.30;;
12135;SDS011;6131;56.420;15.548;2022-08-03T00:26:18;4.13;;;1.50;;
12135;SDS011;6131;56.420;15.548;2022-08-03T00:28:44;6.70;;;1.50;;
12135;SDS011;6131;56.420;15.548;2022-08-03T00:31:10;2.67;;;1.23;;
12135;SDS011;6131;56.420;15.548;2022-08-03T00:33:36;3.27;;;1.30;;
12135;SDS011;6131;56.420;15.548;2022-08-03T00:36:02;5.13;;;1.37;;
12135;SDS011;6131;56.420;15.548;2022-08-03T00:38:28;5.10;;;1.73;;
12135;SDS011;6131;56.420;15.548;2022-08-03T00:40:54;4.00;;;1.17;;
12135;SDS011;6131;56.420;15.548;2022-08-03T00:43:23;5.47;;;1.57;;
12135;SDS011;6131;56.420;15.548;2022-08-03T00:45:49;4.43;;;1.70;;
12135;SDS011;6131;56.420;15.548;2022-08-03T00:48:15;4.77;;;1.67;;
12135;SDS011;6131;56.420;15.548;2022-08-03T00:50:41;4.60;;;1.60;;
12135;SDS011;6131;56.420;15.548;2022-08-03T00:53:09;2.57;;;1.40;;
12135;SDS011;6131;56.420;15.548;2022-08-03T00:55:36;6.60;;;1.70;;
12135;SDS011;6131;56.420;15.548;2022-08-03T00:58:03;2.70;;;1.40;;
12135;SDS011;6131;56.420;15.548;2022-08-03T01:00:33;4.63;;;1.47;;
12135;SDS011;6131;56.420;15.548;2022-08-03T01:03:06;3.17;;;1.30;;
12135;SDS011;6131;56.420;15.548;2022-08-03T01:05:37;4.50;;;1.30;;
12135;SDS011;6131;56.420;15.548;2022-08-03T01:08:07;6.47;;;1.47;;
12135;SDS011;6131;56.420;15.548;2022-08-03T01:11:07;5.40;;;1.70;;
12135;SDS011;6131;56.420;15.548;2022-08-03T01:13:47;3.80;;;1.47;;
12135;SDS011;6131;56.420;15.548;2022-08-03T01:16:18;4.93;;;1.70;;
12135;SDS011;6131;56.420;15.548;2022-08-03T01:21:26;2.87;;;1.37;;
12135;SDS011;6131;56.420;15.548;2022-08-03T01:24:00;3.13;;;1.37;;
12135;SDS011;6131;56.420;15.548;2022-08-03T01:31:42;3.67;;;1.63;;
12135;SDS011;6131;56.420;15.548;2022-08-03T01:34:09;3.30;;;1.43;;
12135;SDS011;6131;56.420;15.548;2022-08-03T01:36:42;5.20;;;1.77;;
12135;SDS011;6131;56.420;15.548;2022-08-03T01:39:09;4.50;;;1.43;;
12135;SDS011;6131;56.420;15.548;2022-08-03T01:41:38;6.17;;;1.47;;
12135;SDS011;6131;56.420;15.548;2022-08-03T01:44:05;5.63;;;1.70;;
12135;SDS011;6131;56.420;15.548;2022-08-03T01:46:32;3.57;;;1.67;;
12135;SDS011;6131;56.420;15.548;2022-08-03T01:48:59;6.60;;;1.70;;
12135;SDS011;6131;56.420;15.548;2022-08-03T01:51:26;4.17;;;1.60;;
12135;SDS011;6131;56.420;15.548;2022-08-03T01:53:53;5.73;;;1.80;;
12135;SDS011;6131;56.420;15.548;2022-08-03T01:56:20;4.73;;;1.63;;
12135;SDS011;6131;56.420;15.548;2022-08-03T01:58:47;3.77;;;1.30;;
12135;SDS011;6131;56.420;15.548;2022-08-03T02:01:14;4.13;;;1.30;;
12135;SDS011;6131;56.420;15.548;2022-08-03T02:03:42;4.77;;;1.47;;
12135;SDS011;6131;56.420;15.548;2022-08-03T02:06:09;6.37;;;2.07;;
12135;SDS011;6131;56.420;15.548;2022-08-03T02:08:36;6.67;;;1.57;;
12135;SDS011;6131;56.420;15.548;2022-08-03T02:11:02;5.80;;;1.50;;
12135;SDS011;6131;56.420;15.548;2022-08-03T02:13:29;5.67;;;2.10;;
12135;SDS011;6131;56.420;15.548;2022-08-03T02:15:55;8.00;;;1.73;;
12135;SDS011;6131;56.420;15.548;2022-08-03T02:18:21;3.97;;;1.73;;
12135;SDS011;6131;56.420;15.548;2022-08-03T02:20:48;7.40;;;1.67;;
12135;SDS011;6131;56.420;15.548;2022-08-03T02:23:15;7.37;;;1.83;;
12135;SDS011;6131;56.420;15.548;2022-08-03T02:25:43;6.43;;;1.83;;
12135;SDS011;6131;56.420;15.548;2022-08-03T02:28:11;6.33;;;2.10;;
12135;SDS011;6131;56.420;15.548;2022-08-03T02:30:41;6.93;;;1.80;;
12135;SDS011;6131;56.420;15.548;2022-08-03T02:33:09;5.40;;;1.60;;
12135;SDS011;6131;56.420;15.548;2022-08-03T02:35:36;4.47;;;1.40;;
12135;SDS011;6131;56.420;15.548;2022-08-03T02:38:04;6.57;;;1.70;;
12135;SDS011;6131;56.420;15.548;2022-08-03T02:40:32;5.87;;;1.70;;
12135;SDS011;6131;56.420;15.548;2022-08-03T02:42:59;4.60;;;1.47;;
12135;SDS011;6131;56.420;15.548;2022-08-03T02:45:27;7.40;;;1.83;;
12135;SDS011;6131;56.420;15.548;2022-08-03T02:47:55;6.57;;;1.97;;
12135;SDS011;6131;56.420;15.548;2022-08-03T02:50:22;7.53;;;2.30;;
12135;SDS011;6131;56.420;15.548;2022-08-03T02:52:50;7.43;;;1.80;;
12135;SDS011;6131;56.420;15.548;2022-08-03T02:55:16;7.37;;;1.73;;
12135;SDS011;6131;56.420;15.548;2022-08-03T02:57:45;4.80;;;1.47;;
12135;SDS011;6131;56.420;15.548;2022-08-03T03:00:11;7.60;;;1.70;;
12135;SDS011;6131;56.420;15.548;2022-08-03T03:02:39;4.30;;;1.80;;
12135;SDS011;6131;56.420;15.548;2022-08-03T03:05:05;7.17;;;2.20;;
12135;SDS011;6131;56.420;15.548;2022-08-03T03:07:32;6.77;;;2.10;;
12135;SDS011;6131;56.420;15.548;2022-08-03T03:09:59;9.67;;;2.23;;
12135;SDS011;6131;56.420;15.548;2022-08-03T03:12:25;5.73;;;1.57;;
12135;SDS011;6131;56.420;15.548;2022-08-03T03:14:52;5.17;;;2.03;;
12135;SDS011;6131;56.420;15.548;2022-08-03T03:17:18;6.50;;;2.10;;
12135;SDS011;6131;56.420;15.548;2022-08-03T03:19:45;8.53;;;2.13;;
12135;SDS011;6131;56.420;15.548;2022-08-03T03:22:11;5.20;;;2.00;;
12135;SDS011;6131;56.420;15.548;2022-08-03T03:24:39;5.97;;;1.73;;
12135;SDS011;6131;56.420;15.548;2022-08-03T03:27:06;7.63;;;2.20;;
12135;SDS011;6131;56.420;15.548;2022-08-03T03:29:32;6.93;;;1.93;;
12135;SDS011;6131;56.420;15.548;2022-08-03T03:31:59;7.23;;;2.20;;
12135;SDS011;6131;56.420;15.548;2022-08-03T03:34:27;4.83;;;1.70;;
12135;SDS011;6131;56.420;15.548;2022-08-03T03:36:53;7.27;;;2.07;;
12135;SDS011;6131;56.420;15.548;2022-08-03T03:39:19;4.73;;;1.80;;
12135;SDS011;6131;56.420;15.548;2022-08-03T03:41:45;6.23;;;2.13;;
12135;SDS011;6131;56.420;15.548;2022-08-03T03:44:11;3.33;;;1.77;;
12135;SDS011;6131;56.420;15.548;2022-08-03T03:46:37;5.07;;;1.90;;
12135;SDS011;6131;56.420;15.548;2022-08-03T03:49:04;6.37;;;2.00;;
12135;SDS011;6131;56.420;15.548;2022-08-03T03:51:31;4.57;;;2.10;;
12135;SDS011;6131;56.420;15.548;2022-08-03T03:53:57;6.53;;;1.90;;
12135;SDS011;6131;56.420;15.548;2022-08-03T03:56:24;3.27;;;1.97;;
12135;SDS011;6131;56.420;15.548;2022-08-03T03:58:50;5.90;;;2.10;;
12135;SDS011;6131;56.420;15.548;2022-08-03T04:01:16;5.67;;;2.13;;
12135;SDS011;6131;56.420;15.548;2022-08-03T04:03:42;4.53;;;2.10;;
12135;SDS011;6131;56.420;15.548;2022-08-03T04:06:08;5.93;;;2.13;;
12135;SDS011;6131;56.420;15.548;2022-08-03T04:08:53;5.67;;;2.20;;
12135;SDS011;6131;56.420;15.548;2022-08-03T04:11:29;3.97;;;2.10;;
12135;SDS011;6131;56.420;15.548;2022-08-03T04:16:44;7.17;;;2.23;;
12135;SDS011;6131;56.420;15.548;2022-08-03T04:19:16;4.40;;;2.10;;
12135;SDS011;6131;56.420;15.548;2022-08-03T04:21:43;4.67;;;2.17;;
12135;SDS011;6131;56.420;15.548;2022-08-03T04:24:12;4.97;;;2.20;;
12135;SDS011;6131;56.420;15.548;2022-08-03T04:26:40;6.60;;;2.30;;
12135;SDS011;6131;56.420;15.548;2022-08-03T04:29:08;4.35;;;2.05;;
12135;SDS011;6131;56.420;15.548;2022-08-03T04:31:35;5.47;;;2.50;;
12135;SDS011;6131;56.420;15.548;2022-08-03T04:34:01;4.33;;;2.80;;
12135;SDS011;6131;56.420;15.548;2022-08-03T04:36:30;4.50;;;2.10;;
12135;SDS011;6131;56.420;15.548;2022-08-03T04:39:01;4.53;;;2.13;;
12135;SDS011;6131;56.420;15.548;2022-08-03T04:41:28;4.07;;;2.40;;
12135;SDS011;6131;56.420;15.548;2022-08-03T04:43:56;6.22;;;2.25;;
12135;SDS011;6131;56.420;15.548;2022-08-03T04:46:24;4.77;;;2.13;;
12135;SDS011;6131;56.420;15.548;2022-08-03T04:48:51;3.13;;;1.90;;
12135;SDS011;6131;56.420;15.548;2022-08-03T04:51:17;5.70;;;2.40;;
12135;SDS011;6131;56.420;15.548;2022-08-03T04:53:43;4.03;;;2.30;;
12135;SDS011;6131;56.420;15.548;2022-08-03T04:56:09;5.90;;;2.50;;
12135;SDS011;6131;56.420;15.548;2022-08-03T04:58:35;6.57;;;2.93;;
12135;SDS011;6131;56.420;15.548;2022-08-03T05:01:01;5.00;;;2.17;;
12135;SDS011;6131;56.420;15.548;2022-08-03T05:03:27;2.88;;;1.90;;
12135;SDS011;6131;56.420;15.548;2022-08-03T05:05:53;4.80;;;2.20;;
12135;SDS011;6131;56.420;15.548;2022-08-03T05:08:20;3.65;;;2.20;;
12135;SDS011;6131;56.420;15.548;2022-08-03T05:10:46;3.72;;;2.10;;
12135;SDS011;6131;56.420;15.548;2022-08-03T05:13:12;5.13;;;2.35;;
12135;SDS011;6131;56.420;15.548;2022-08-03T05:15:38;3.65;;;2.25;;
12135;SDS011;6131;56.420;15.548;2022-08-03T05:18:05;4.45;;;1.98;;
12135;SDS011;6131;56.420;15.548;2022-08-03T05:20:31;4.03;;;1.90;;
12135;SDS011;6131;56.420;15.548;2022-08-03T05:22:58;4.00;;;2.10;;
12135;SDS011;6131;56.420;15.548;2022-08-03T05:25:28;5.35;;;2.13;;
12135;SDS011;6131;56.420;15.548;2022-08-03T05:27:54;5.85;;;2.28;;
12135;SDS011;6131;56.420;15.548;2022-08-03T05:30:20;8.55;;;2.10;;
12135;SDS011;6131;56.420;15.548;2022-08-03T05:32:46;7.07;;;2.30;;
12135;SDS011;6131;56.420;15.548;2022-08-03T05:35:12;6.43;;;2.13;;
12135;SDS011;6131;56.420;15.548;2022-08-03T05:37:38;6.32;;;2.00;;
12135;SDS011;6131;56.420;15.548;2022-08-03T05:40:04;4.00;;;2.15;;
12135;SDS011;6131;56.420;15.548;2022-08-03T05:42:31;3.35;;;1.88;;
12135;SDS011;6131;56.420;15.548;2022-08-03T05:44:57;2.95;;;1.98;;
12135;SDS011;6131;56.420;15.548;2022-08-03T05:47:23;3.35;;;1.85;;
12135;SDS011;6131;56.420;15.548;2022-08-03T05:49:49;4.60;;;1.90;;
12135;SDS011;6131;56.420;15.548;2022-08-03T05:52:15;5.45;;;1.98;;
12135;SDS011;6131;56.420;15.548;2022-08-03T05:54:41;6.32;;;2.22;;
12135;SDS011;6131;56.420;15.548;2022-08-03T05:57:07;3.80;;;1.83;;
12135;SDS011;6131;56.420;15.548;2022-08-03T05:59:34;7.32;;;2.08;;
12135;SDS011;6131;56.420;15.548;2022-08-03T06:02:02;3.83;;;2.15;;
12135;SDS011;6131;56.420;15.548;2022-08-03T06:04:28;4.28;;;1.80;;
12135;SDS011;6131;56.420;15.548;2022-08-03T06:06:54;5.47;;;1.98;;
12135;SDS011;6131;56.420;15.548;2022-08-03T06:09:20;3.42;;;1.90;;
12135;SDS011;6131;56.420;15.548;2022-08-03T06:11:46;5.30;;;1.90;;
12135;SDS011;6131;56.420;15.548;2022-08-03T06:14:12;6.10;;;1.90;;
12135;SDS011;6131;56.420;15.548;2022-08-03T06:16:38;3.65;;;1.75;;
12135;SDS011;6131;56.420;15.548;2022-08-03T06:19:05;3.40;;;1.80;;
12135;SDS011;6131;56.420;15.548;2022-08-03T06:21:31;3.92;;;2.00;;
12135;SDS011;6131;56.420;15.548;2022-08-03T06:23:57;5.65;;;2.20;;
12135;SDS011;6131;56.420;15.548;2022-08-03T06:26:23;2.75;;;1.88;;
12135;SDS011;6131;56.420;15.548;2022-08-03T06:28:49;3.78;;;2.00;;
12135;SDS011;6131;56.420;15.548;2022-08-03T06:31:15;3.25;;;1.30;;
12135;SDS011;6131;56.420;15.548;2022-08-03T06:33:41;4.68;;;1.77;;
12135;SDS011;6131;56.420;15.548;2022-08-03T06:36:07;3.58;;;1.75;;
12135;SDS011;6131;56.420;15.548;2022-08-03T06:38:33;4.13;;;1.65;;
12135;SDS011;6131;56.420;15.548;2022-08-03T06:40:59;4.05;;;1.70;;
12135;SDS011;6131;56.420;15.548;2022-08-03T06:43:25;7.55;;;1.90;;
12135;SDS011;6131;56.420;15.548;2022-08-03T06:45:51;6.43;;;1.80;;
12135;SDS011;6131;56.420;15.548;2022-08-03T06:48:17;4.25;;;1.70;;
12135;SDS011;6131;56.420;15.548;2022-08-03T06:50:43;3.95;;;1.58;;
12135;SDS011;6131;56.420;15.548;2022-08-03T06:53:09;5.32;;;1.70;;
12135;SDS011;6131;56.420;15.548;2022-08-03T06:55:36;6.00;;;1.70;;
12135;SDS011;6131;56.420;15.548;2022-08-03T06:58:02;4.88;;;2.00;;
12135;SDS011;6131;56.420;15.548;2022-08-03T07:00:28;2.67;;;1.60;;
12135;SDS011;6131;56.420;15.548;2022-08-03T07:02:55;4.15;;;1.73;;
12135;SDS011;6131;56.420;15.548;2022-08-03T07:05:22;2.67;;;1.48;;
12135;SDS011;6131;56.420;15.548;2022-08-03T07:07:48;4.00;;;1.60;;
12135;SDS011;6131;56.420;15.548;2022-08-03T07:10:14;2.20;;;1.67;;
12135;SDS011;6131;56.420;15.548;2022-08-03T07:12:40;7.15;;;1.73;;
12135;SDS011;6131;56.420;15.548;2022-08-03T07:15:07;4.05;;;1.70;;
12135;SDS011;6131;56.420;15.548;2022-08-03T07:17:33;4.72;;;1.67;;
12135;SDS011;6131;56.420;15.548;2022-08-03T07:20:00;4.38;;;1.65;;
12135;SDS011;6131;56.420;15.548;2022-08-03T07:22:26;3.97;;;1.58;;
12135;SDS011;6131;56.420;15.548;2022-08-03T07:24:52;3.70;;;1.27;;
12135;SDS011;6131;56.420;15.548;2022-08-03T07:27:18;5.97;;;2.03;;
12135;SDS011;6131;56.420;15.548;2022-08-03T07:29:44;2.90;;;1.52;;
12135;SDS011;6131;56.420;15.548;2022-08-03T07:32:10;8.05;;;1.70;;
12135;SDS011;6131;56.420;15.548;2022-08-03T07:34:36;6.03;;;1.50;;
12135;SDS011;6131;56.420;15.548;2022-08-03T07:37:02;4.38;;;1.60;;
12135;SDS011;6131;56.420;15.548;2022-08-03T07:39:28;3.10;;;1.60;;
12135;SDS011;6131;56.420;15.548;2022-08-03T07:41:54;3.17;;;1.40;;
12135;SDS011;6131;56.420;15.548;2022-08-03T07:44:20;2.92;;;1.38;;
12135;SDS011;6131;56.420;15.548;2022-08-03T07:46:46;5.43;;;1.40;;
12135;SDS011;6131;56.420;15.548;2022-08-03T07:49:13;4.30;;;1.67;;
12135;SDS011;6131;56.420;15.548;2022-08-03T07:51:39;3.67;;;1.50;;
12135;SDS011;6131;56.420;15.548;2022-08-03T07:54:05;4.00;;;1.75;;
12135;SDS011;6131;56.420;15.548;2022-08-03T07:56:31;4.65;;;1.73;;
12135;SDS011;6131;56.420;15.548;2022-08-03T07:58:57;4.95;;;1.65;;
12135;SDS011;6131;56.420;15.548;2022-08-03T08:01:23;3.47;;;1.52;;
12135;SDS011;6131;56.420;15.548;2022-08-03T08:03:50;6.15;;;1.75;;
12135;SDS011;6131;56.420;15.548;2022-08-03T08:06:16;2.92;;;1.60;;
12135;SDS011;6131;56.420;15.548;2022-08-03T08:08:42;4.63;;;1.70;;
12135;SDS011;6131;56.420;15.548;2022-08-03T08:11:08;2.03;;;1.25;;
12135;SDS011;6131;56.420;15.548;2022-08-03T08:13:34;3.83;;;1.50;;
12135;SDS011;6131;56.420;15.548;2022-08-03T08:16:04;3.67;;;1.50;;
12135;SDS011;6131;56.420;15.548;2022-08-03T08:18:30;3.78;;;1.58;;
12135;SDS011;6131;56.420;15.548;2022-08-03T08:20:56;3.00;;;1.40;;
12135;SDS011;6131;56.420;15.548;2022-08-03T08:23:22;2.88;;;1.30;;
12135;SDS011;6131;56.420;15.548;2022-08-03T08:25:49;4.50;;;1.55;;
12135;SDS011;6131;56.420;15.548;2022-08-03T08:28:16;2.05;;;1.33;;
12135;SDS011;6131;56.420;15.548;2022-08-03T08:30:42;7.60;;;1.58;;
12135;SDS011;6131;56.420;15.548;2022-08-03T08:33:08;3.20;;;1.40;;
12135;SDS011;6131;56.420;15.548;2022-08-03T08:35:34;3.80;;;1.40;;
12135;SDS011;6131;56.420;15.548;2022-08-03T08:38:00;4.90;;;1.70;;
12135;SDS011;6131;56.420;15.548;2022-08-03T08:40:27;5.65;;;1.55;;
12135;SDS011;6131;56.420;15.548;2022-08-03T08:42:53;4.13;;;1.50;;
12135;SDS011;6131;56.420;15.548;2022-08-03T08:45:19;4.97;;;1.60;;
12135;SDS011;6131;56.420;15.548;2022-08-03T08:47:45;4.47;;;1.60;;
12135;SDS011;6131;56.420;15.548;2022-08-03T08:50:12;2.80;;;1.30;;
12135;SDS011;6131;56.420;15.548;2022-08-03T08:52:39;4.25;;;1.20;;
12135;SDS011;6131;56.420;15.548;2022-08-03T08:55:07;3.42;;;1.40;;
12135;SDS011;6131;56.420;15.548;2022-08-03T08:57:36;2.50;;;1.50;;
12135;SDS011;6131;56.420;15.548;2022-08-03T09:00:04;3.95;;;1.67;;
12135;SDS011;6131;56.420;15.548;2022-08-03T09:02:32;4.85;;;1.60;;
12135;SDS011;6131;56.420;15.548;2022-08-03T09:04:59;3.95;;;1.40;;
12135;SDS011;6131;56.420;15.548;2022-08-03T09:07:26;3.78;;;1.70;;
12135;SDS011;6131;56.420;15.548;2022-08-03T09:09:52;3.97;;;1.70;;
12135;SDS011;6131;56.420;15.548;2022-08-03T09:12:18;2.58;;;1.75;;
12135;SDS011;6131;56.420;15.548;2022-08-03T09:14:44;4.40;;;1.80;;
12135;SDS011;6131;56.420;15.548;2022-08-03T09:17:10;7.95;;;1.77;;
12135;SDS011;6131;56.420;15.548;2022-08-03T09:19:36;4.40;;;1.70;;
12135;SDS011;6131;56.420;15.548;2022-08-03T09:22:06;3.90;;;1.60;;
12135;SDS011;6131;56.420;15.548;2022-08-03T09:24:36;3.67;;;1.83;;
12135;SDS011;6131;56.420;15.548;2022-08-03T09:27:06;3.92;;;1.65;;
12135;SDS011;6131;56.420;15.548;2022-08-03T09:29:42;5.22;;;1.55;;
12135;SDS011;6131;56.420;15.548;2022-08-03T09:32:12;4.72;;;1.80;;
12135;SDS011;6131;56.420;15.548;2022-08-03T09:34:38;5.93;;;1.80;;
12135;SDS011;6131;56.420;15.548;2022-08-03T09:37:07;3.90;;;1.70;;
12135;SDS011;6131;56.420;15.548;2022-08-03T09:39:37;4.50;;;1.63;;
12135;SDS011;6131;56.420;15.548;2022-08-03T09:42:05;6.97;;;2.05;;
12135;SDS011;6131;56.420;15.548;2022-08-03T09:44:38;2.55;;;1.40;;
12135;SDS011;6131;56.420;15.548;2022-08-03T09:47:06;3.22;;;1.60;;
12135;SDS011;6131;56.420;15.548;2022-08-03T09:49:32;2.90;;;1.70;;
12135;SDS011;6131;56.420;15.548;2022-08-03T09:52:10;4.88;;;1.83;;
12135;SDS011;6131;56.420;15.548;2022-08-03T09:54:36;4.28;;;1.67;;
12135;SDS011;6131;56.420;15.548;2022-08-03T09:57:02;2.80;;;1.65;;
12135;SDS011;6131;56.420;15.548;2022-08-03T09:59:29;3.17;;;1.67;;
12135;SDS011;6131;56.420;15.548;2022-08-03T10:01:56;2.40;;;1.50;;
12135;SDS011;6131;56.420;15.548;2022-08-03T10:04:23;3.30;;;1.67;;
12135;SDS011;6131;56.420;15.548;2022-08-03T10:07:03;3.60;;;1.60;;
12135;SDS011;6131;56.420;15.548;2022-08-03T10:09:29;3.08;;;1.33;;
12135;SDS011;6131;56.420;15.548;2022-08-03T10:11:55;3.90;;;1.77;;
12135;SDS011;6131;56.420;15.548;2022-08-03T10:14:23;2.78;;;1.55;;
12135;SDS011;6131;56.420;15.548;2022-08-03T10:16:54;2.67;;;1.50;;
12135;SDS011;6131;56.420;15.548;2022-08-03T10:19:20;2.67;;;1.58;;
12135;SDS011;6131;56.420;15.548;2022-08-03T10:21:49;5.18;;;1.83;;
12135;SDS011;6131;56.420;15.548;2022-08-03T10:24:19;4.70;;;1.48;;
12135;SDS011;6131;56.420;15.548;2022-08-03T10:26:48;4.15;;;1.60;;
12135;SDS011;6131;56.420;15.548;2022-08-03T10:29:17;2.97;;;1.60;;
12135;SDS011;6131;56.420;15.548;2022-08-03T10:31:46;3.83;;;1.63;;
12135;SDS011;6131;56.420;15.548;2022-08-03T10:34:17;4.18;;;1.80;;
12135;SDS011;6131;56.420;15.548;2022-08-03T10:36:44;4.15;;;1.50;;
12135;SDS011;6131;56.420;15.548;2022-08-03T10:39:10;4.28;;;1.40;;
12135;SDS011;6131;56.420;15.548;2022-08-03T10:41:38;6.03;;;1.60;;
12135;SDS011;6131;56.420;15.548;2022-08-03T10:44:09;4.25;;;1.52;;
12135;SDS011;6131;56.420;15.548;2022-08-03T10:46:38;4.70;;;1.50;;
12135;SDS011;6131;56.420;15.548;2022-08-03T10:49:04;4.85;;;1.40;;
12135;SDS011;6131;56.420;15.548;2022-08-03T10:51:31;4.60;;;1.67;;
12135;SDS011;6131;56.420;15.548;2022-08-03T10:53:58;1.98;;;1.50;;
12135;SDS011;6131;56.420;15.548;2022-08-03T10:56:45;4.43;;;1.70;;
12135;SDS011;6131;56.420;15.548;2022-08-03T11:02:10;7.45;;;1.48;;
12135;SDS011;6131;56.420;15.548;2022-08-03T11:04:38;4.07;;;1.27;;
12135;SDS011;6131;56.420;15.548;2022-08-03T11:07:17;2.85;;;1.70;;
12135;SDS011;6131;56.420;15.548;2022-08-03T11:09:48;3.28;;;1.48;;
12135;SDS011;6131;56.420;15.548;2022-08-03T11:14:46;3.50;;;1.50;;
12135;SDS011;6131;56.420;15.548;2022-08-03T11:17:13;6.30;;;1.90;;
12135;SDS011;6131;56.420;15.548;2022-08-03T11:19:46;2.80;;;1.30;;
12135;SDS011;6131;56.420;15.548;2022-08-03T11:22:12;3.67;;;1.50;;
12135;SDS011;6131;56.420;15.548;2022-08-03T11:41:10;2.38;;;1.50;;
12135;SDS011;6131;56.420;15.548;2022-08-03T11:46:05;3.72;;;1.65;;
12135;SDS011;6131;56.420;15.548;2022-08-03T11:48:38;4.95;;;1.50;;
12135;SDS011;6131;56.420;15.548;2022-08-03T11:51:05;3.58;;;1.25;;
12135;SDS011;6131;56.420;15.548;2022-08-03T11:53:32;3.35;;;1.35;;
12135;SDS011;6131;56.420;15.548;2022-08-03T11:55:58;3.42;;;1.42;;
12135;SDS011;6131;56.420;15.548;2022-08-03T11:58:25;3.28;;;1.52;;
12135;SDS011;6131;56.420;15.548;2022-08-03T12:00:51;2.72;;;1.50;;
12135;SDS011;6131;56.420;15.548;2022-08-03T12:03:18;4.55;;;1.77;;
12135;SDS011;6131;56.420;15.548;2022-08-03T12:08:15;4.65;;;1.70;;
12135;SDS011;6131;56.420;15.548;2022-08-03T12:10:45;4.47;;;1.70;;
12135;SDS011;6131;56.420;15.548;2022-08-03T12:13:12;3.55;;;1.63;;
12135;SDS011;6131;56.420;15.548;2022-08-03T12:15:38;5.63;;;1.80;;
12135;SDS011;6131;56.420;15.548;2022-08-03T12:18:11;5.50;;;1.70;;
12135;SDS011;6131;56.420;15.548;2022-08-03T12:20:38;4.05;;;1.63;;
12135;SDS011;6131;56.420;15.548;2022-08-03T12:23:05;4.00;;;1.58;;
12135;SDS011;6131;56.420;15.548;2022-08-03T12:25:33;4.32;;;1.60;;
12135;SDS011;6131;56.420;15.548;2022-08-03T12:28:10;5.15;;;1.52;;
12135;SDS011;6131;56.420;15.548;2022-08-03T12:30:37;3.22;;;1.40;;
12135;SDS011;6131;56.420;15.548;2022-08-03T12:33:13;5.00;;;1.50;;
12135;SDS011;6131;56.420;15.548;2022-08-03T12:35:39;3.97;;;1.58;;
12135;SDS011;6131;56.420;15.548;2022-08-03T12:38:05;2.97;;;1.45;;
12135;SDS011;6131;56.420;15.548;2022-08-03T12:40:31;3.05;;;1.48;;
12135;SDS011;6131;56.420;15.548;2022-08-03T12:42:57;2.30;;;1.30;;
12135;SDS011;6131;56.420;15.548;2022-08-03T12:45:27;2.72;;;1.40;;
12135;SDS011;6131;56.420;15.548;2022-08-03T12:47:57;3.40;;;1.63;;
12135;SDS011;6131;56.420;15.548;2022-08-03T12:52:50;2.65;;;1.55;;
12135;SDS011;6131;56.420;15.548;2022-08-03T12:55:19;5.70;;;1.85;;
12135;SDS011;6131;56.420;15.548;2022-08-03T12:57:46;5.68;;;2.00;;
12135;SDS011;6131;56.420;15.548;2022-08-03T13:00:13;4.97;;;1.80;;
12135;SDS011;6131;56.420;15.548;2022-08-03T13:02:39;4.47;;;1.77;;
12135;SDS011;6131;56.420;15.548;2022-08-03T13:05:12;3.58;;;1.80;;
12135;SDS011;6131;56.420;15.548;2022-08-03T13:07:41;3.40;;;1.52;;
12135;SDS011;6131;56.420;15.548;2022-08-03T13:10:08;2.45;;;1.80;;
12135;SDS011;6131;56.420;15.548;2022-08-03T13:12:44;6.28;;;1.70;;
12135;SDS011;6131;56.420;15.548;2022-08-03T13:15:11;4.93;;;1.80;;
12135;SDS011;6131;56.420;15.548;2022-08-03T13:17:37;2.75;;;1.50;;
12135;SDS011;6131;56.420;15.548;2022-08-03T13:20:03;2.45;;;1.48;;
12135;SDS011;6131;56.420;15.548;2022-08-03T13:22:29;3.15;;;1.60;;
12135;SDS011;6131;56.420;15.548;2022-08-03T13:24:57;4.43;;;1.70;;
12135;SDS011;6131;56.420;15.548;2022-08-03T13:27:25;4.97;;;1.70;;
12135;SDS011;6131;56.420;15.548;2022-08-03T13:29:51;3.40;;;1.58;;
12135;SDS011;6131;56.420;15.548;2022-08-03T13:32:17;3.38;;;1.58;;
12135;SDS011;6131;56.420;15.548;2022-08-03T13:34:44;3.58;;;1.65;;
12135;SDS011;6131;56.420;15.548;2022-08-03T13:37:10;3.75;;;1.50;;
12135;SDS011;6131;56.420;15.548;2022-08-03T13:39:36;3.88;;;1.60;;
12135;SDS011;6131;56.420;15.548;2022-08-03T13:42:02;3.33;;;1.58;;
12135;SDS011;6131;56.420;15.548;2022-08-03T13:44:29;5.78;;;1.75;;
12135;SDS011;6131;56.420;15.548;2022-08-03T13:46:55;4.05;;;1.55;;
12135;SDS011;6131;56.420;15.548;2022-08-03T13:49:21;6.50;;;1.80;;
12135;SDS011;6131;56.420;15.548;2022-08-03T13:51:47;3.25;;;1.60;;
12135;SDS011;6131;56.420;15.548;2022-08-03T13:54:14;2.45;;;1.42;;
12135;SDS011;6131;56.420;15.548;2022-08-03T13:56:40;5.22;;;1.60;;
12135;SDS011;6131;56.420;15.548;2022-08-03T13:59:06;4.15;;;1.52;;
12135;SDS011;6131;56.420;15.548;2022-08-03T14:01:32;4.07;;;1.50;;
12135;SDS011;6131;56.420;15.548;2022-08-03T14:03:58;5.68;;;1.60;;
12135;SDS011;6131;56.420;15.548;2022-08-03T14:06:24;4.90;;;1.70;;
12135;SDS011;6131;56.420;15.548;2022-08-03T14:08:50;2.42;;;1.50;;
12135;SDS011;6131;56.420;15.548;2022-08-03T14:11:16;4.32;;;1.75;;
12135;SDS011;6131;56.420;15.548;2022-08-03T14:13:42;3.40;;;1.63;;
12135;SDS011;6131;56.420;15.548;2022-08-03T14:16:08;4.80;;;1.60;;
12135;SDS011;6131;56.420;15.548;2022-08-03T14:18:34;2.40;;;1.50;;
12135;SDS011;6131;56.420;15.548;2022-08-03T14:21:01;5.13;;;1.70;;
12135;SDS011;6131;56.420;15.548;2022-08-03T14:23:27;2.45;;;1.48;;
12135;SDS011;6131;56.420;15.548;2022-08-03T14:25:53;3.10;;;1.63;;
12135;SDS011;6131;56.420;15.548;2022-08-03T14:28:20;3.70;;;1.80;;
12135;SDS011;6131;56.420;15.548;2022-08-03T14:30:46;4.25;;;1.65;;
12135;SDS011;6131;56.420;15.548;2022-08-03T14:33:12;3.75;;;1.70;;
12135;SDS011;6131;56.420;15.548;2022-08-03T14:35:38;5.20;;;1.85;;
12135;SDS011;6131;56.420;15.548;2022-08-03T14:38:05;3.83;;;1.60;;
12135;SDS011;6131;56.420;15.548;2022-08-03T14:40:31;3.35;;;1.52;;
12135;SDS011;6131;56.420;15.548;2022-08-03T14:42:57;2.80;;;1.52;;
12135;SDS011;6131;56.420;15.548;2022-08-03T14:45:23;2.92;;;1.90;;
12135;SDS011;6131;56.420;15.548;2022-08-03T14:47:49;3.95;;;1.48;;
12135;SDS011;6131;56.420;15.548;2022-08-03T14:50:15;4.93;;;2.05;;
12135;SDS011;6131;56.420;15.548;2022-08-03T14:52:41;4.22;;;1.80;;
12135;SDS011;6131;56.420;15.548;2022-08-03T14:55:08;4.38;;;2.50;;
12135;SDS011;6131;56.420;15.548;2022-08-03T14:57:34;4.13;;;1.80;;
12135;SDS011;6131;56.420;15.548;2022-08-03T15:00:00;2.30;;;1.17;;
12135;SDS011;6131;56.420;15.548;2022-08-03T15:02:26;4.47;;;1.70;;
12135;SDS011;6131;56.420;15.548;2022-08-03T15:04:54;3.20;;;1.80;;
12135;SDS011;6131;56.420;15.548;2022-08-03T15:07:20;3.72;;;1.48;;
12135;SDS011;6131;56.420;15.548;2022-08-03T15:09:46;2.50;;;1.40;;
12135;SDS011;6131;56.420;15.548;2022-08-03T15:12:12;3.42;;;1.48;;
12135;SDS011;6131;56.420;15.548;2022-08-03T15:14:38;3.40;;;1.75;;
12135;SDS011;6131;56.420;15.548;2022-08-03T15:17:04;2.47;;;1.38;;
12135;SDS011;6131;56.420;15.548;2022-08-03T15:19:30;6.78;;;1.90;;
12135;SDS011;6131;56.420;15.548;2022-08-03T15:21:57;2.83;;;1.65;;
12135;SDS011;6131;56.420;15.548;2022-08-03T15:24:23;5.25;;;1.70;;
12135;SDS011;6131;56.420;15.548;2022-08-03T15:26:49;4.97;;;1.80;;
12135;SDS011;6131;56.420;15.548;2022-08-03T15:29:16;1.77;;;1.48;;